Time;durP1;ratioP1;P1;durP2;ratioP2;P2;SDS_P1;SDS_P2;PMS_P1;PMS_P2;Temp;Humidity;BMP_temperature;BMP_pressure;BME280_temperature;BME280_humidity;BME280_pressure;Samples;Min_cycle;Max_cycle;Signal;HPM_P1;HPM_P2
2022/03/15 00:00:15;;;;;;;;;;;1.00;99.90;;;;;;5050258;28;19917;-78
2022/03/15 00:02:40;;;;;;;;;;;1.00;99.90;;;;;;5051898;28;19913;-77
2022/03/15 00:05:07;;;;;;;;;;;1.00;99.90;;;;;;5051823;28;19947;-78
2022/03/15 00:07:32;;;;;;;;;;;1.00;99.90;;;;;;5032009;28;20007;-78
2022/03/15 00:10:00;;;;;;;;;;;0.90;99.90;;;;;;5032464;28;20159;-78
2022/03/15 00:12:26;;;;;;;;;;;1.00;99.90;;;;;;5030275;28;20086;-77
2022/03/15 00:14:52;;;;;;;;;;;0.90;99.90;;;;;;5009092;28;19917;-78
2022/03/15 00:17:18;;;;;;;;;;;1.00;99.90;;;;;;5030838;28;20375;-77
2022/03/15 00:19:44;;;;;;;;;;;1.00;99.90;;;;;;5032767;28;19920;-77
2022/03/15 00:22:10;;;;;;;;;;;0.90;99.90;;;;;;5048902;28;19974;-77
2022/03/15 00:24:35;;;;;;;;;;;1.00;99.90;;;;;;5032835;28;19921;-78
2022/03/15 00:27:01;;;;;;;;;;;0.90;99.90;;;;;;5050795;28;19920;-77
2022/03/15 00:29:27;;;;;;;;;;;0.80;99.90;;;;;;5010706;28;19913;-78
2022/03/15 00:31:52;;;;;;;;;;;0.90;99.90;;;;;;5049432;28;19913;-77
2022/03/15 00:34:19;;;;;;;;;;;0.90;99.90;;;;;;5041004;28;19917;-78
2022/03/15 00:36:45;;;;;;;;;;;0.90;99.90;;;;;;5042932;28;20450;-78
2022/03/15 00:39:11;;;;;;;;;;;0.90;99.90;;;;;;5028200;28;19927;-78
2022/03/15 00:41:37;;;;;;;;;;;0.90;99.90;;;;;;5026875;28;19921;-79
2022/03/15 00:44:03;;;;;;;;;;;0.90;99.90;;;;;;5039752;28;19943;-78
2022/03/15 00:46:29;;;;;;;;;;;0.90;99.90;;;;;;5023184;28;20422;-78
2022/03/15 00:48:54;;;;;;;;;;;0.80;99.90;;;;;;5031590;28;19916;-77
2022/03/15 00:51:20;;;;;;;;;;;0.90;99.90;;;;;;5050440;28;20524;-77
2022/03/15 00:53:45;;;;;;;;;;;0.90;99.90;;;;;;5015883;28;19916;-77
2022/03/15 00:56:11;;;;;;;;;;;0.90;99.90;;;;;;5032960;28;19917;-78
2022/03/15 00:58:37;;;;;;;;;;;0.90;99.90;;;;;;5047481;28;20023;-77
2022/03/15 01:01:08;;;;;;;;;;;0.90;99.90;;;;;;5033015;28;20418;-77
2022/03/15 01:03:33;;;;;;;;;;;0.90;99.90;;;;;;5029663;28;19916;-78
2022/03/15 01:05:59;;;;;;;;;;;0.90;99.90;;;;;;5030898;28;20384;-78
2022/03/15 01:08:24;;;;;;;;;;;0.80;99.90;;;;;;5010385;28;19917;-78
2022/03/15 01:10:51;;;;;;;;;;;0.80;99.90;;;;;;5031808;28;20421;-78
2022/03/15 01:13:16;;;;;;;;;;;0.80;99.90;;;;;;5046721;28;19914;-77
2022/03/15 01:15:43;;;;;;;;;;;0.80;99.90;;;;;;5016566;28;20397;-78
2022/03/15 01:18:09;;;;;;;;;;;0.80;99.90;;;;;;5045675;28;19917;-78
2022/03/15 01:20:37;;;;;;;;;;;0.80;99.90;;;;;;5047078;28;19913;-78
2022/03/15 01:23:03;;;;;;;;;;;0.80;99.90;;;;;;5045894;28;19978;-78
2022/03/15 01:25:30;;;;;;;;;;;0.80;99.90;;;;;;5036269;28;19925;-78
2022/03/15 01:27:56;;;;;;;;;;;0.80;99.90;;;;;;5049829;28;19917;-78
2022/03/15 01:30:22;;;;;;;;;;;0.80;99.90;;;;;;5036306;28;20406;-78
2022/03/15 01:32:48;;;;;;;;;;;0.80;99.90;;;;;;5011595;28;19913;-77
2022/03/15 01:35:15;;;;;;;;;;;0.80;99.90;;;;;;5030521;28;20003;-78
2022/03/15 01:37:41;;;;;;;;;;;0.80;99.90;;;;;;5014118;28;19971;-78
2022/03/15 01:40:10;;;;;;;;;;;0.70;99.90;;;;;;5032907;28;20383;-78
2022/03/15 01:42:35;;;;;;;;;;;0.70;99.90;;;;;;5033158;28;19912;-78
2022/03/15 01:45:02;;;;;;;;;;;0.70;99.90;;;;;;5027710;28;20435;-77
2022/03/15 01:47:28;;;;;;;;;;;0.70;99.90;;;;;;5034603;28;20382;-78
2022/03/15 01:49:54;;;;;;;;;;;0.70;99.90;;;;;;5036485;28;19913;-78
2022/03/15 01:52:20;;;;;;;;;;;0.70;99.90;;;;;;5048299;28;19918;-78
2022/03/15 01:54:46;;;;;;;;;;;0.70;99.90;;;;;;5012940;28;19917;-79
2022/03/15 01:57:13;;;;;;;;;;;0.70;99.90;;;;;;5031951;28;19924;-77
2022/03/15 01:59:40;;;;;;;;;;;0.70;99.90;;;;;;5031544;28;20366;-79
2022/03/15 02:02:06;;;;;;;;;;;0.80;99.90;;;;;;5033283;28;19960;-78
2022/03/15 02:04:32;;;;;;;;;;;0.80;99.90;;;;;;5052426;28;19924;-78
2022/03/15 02:07:16;;;;;;;;;;;0.90;99.90;;;;;;5032822;28;19917;-77
2022/03/15 02:09:42;;;;;;;;;;;0.80;99.90;;;;;;5049348;28;19920;-78
2022/03/15 02:12:07;;;;;;;;;;;0.80;99.90;;;;;;5033061;28;19921;-77
2022/03/15 02:14:34;;;;;;;;;;;0.80;99.90;;;;;;5035441;28;19924;-78
2022/03/15 02:16:59;;;;;;;;;;;0.70;99.90;;;;;;5052526;28;20018;-77
2022/03/15 02:19:27;;;;;;;;;;;0.70;99.90;;;;;;5053158;28;19932;-77
2022/03/15 02:21:53;;;;;;;;;;;0.70;99.90;;;;;;5032565;28;20406;-79
2022/03/15 02:24:19;;;;;;;;;;;0.70;99.90;;;;;;5052972;28;19917;-78
2022/03/15 02:26:45;;;;;;;;;;;0.70;99.90;;;;;;5035526;28;20263;-77
2022/03/15 02:29:10;;;;;;;;;;;0.70;99.90;;;;;;5053221;28;19913;-77
2022/03/15 02:31:37;;;;;;;;;;;0.70;99.90;;;;;;5035757;28;19912;-78
2022/03/15 02:34:03;;;;;;;;;;;0.60;99.90;;;;;;5033478;28;19954;-77
2022/03/15 02:36:29;;;;;;;;;;;0.70;99.90;;;;;;5053400;28;19925;-77
2022/03/15 02:38:54;;;;;;;;;;;0.60;99.90;;;;;;5034550;28;19924;-77
2022/03/15 02:41:20;;;;;;;;;;;0.50;99.90;;;;;;5053017;28;20015;-78
2022/03/15 02:43:45;;;;;;;;;;;0.50;99.90;;;;;;5035517;28;20321;-78
2022/03/15 02:46:11;;;;;;;;;;;0.40;99.90;;;;;;5052776;28;19924;-78
2022/03/15 02:48:37;;;;;;;;;;;0.40;99.90;;;;;;5049247;28;19916;-79
2022/03/15 02:51:08;;;;;;;;;;;0.40;99.90;;;;;;5049003;28;19913;-77
2022/03/15 02:53:34;;;;;;;;;;;0.40;99.90;;;;;;5053175;28;20008;-78
2022/03/15 02:55:59;;;;;;;;;;;0.40;99.90;;;;;;5049745;28;20381;-78
2022/03/15 02:58:25;;;;;;;;;;;0.40;99.90;;;;;;5044842;28;20027;-77
2022/03/15 03:00:51;;;;;;;;;;;0.40;99.90;;;;;;5049529;28;20015;-78
2022/03/15 03:03:16;;;;;;;;;;;0.50;99.90;;;;;;5031784;28;20334;-78
2022/03/15 03:05:42;;;;;;;;;;;0.50;99.90;;;;;;5033311;28;19917;-77
2022/03/15 03:08:07;;;;;;;;;;;0.50;99.90;;;;;;5005060;28;19978;-78
2022/03/15 03:10:33;;;;;;;;;;;0.50;99.90;;;;;;5052742;28;19924;-78
2022/03/15 03:12:59;;;;;;;;;;;0.60;99.90;;;;;;5033074;28;20375;-80
2022/03/15 03:15:26;;;;;;;;;;;0.60;99.90;;;;;;5048803;28;20379;-78
2022/03/15 03:17:51;;;;;;;;;;;0.70;99.90;;;;;;5045239;28;19971;-78
2022/03/15 03:20:21;;;;;;;;;;;0.60;99.90;;;;;;5052622;28;19917;-78
2022/03/15 03:22:54;;;;;;;;;;;0.60;99.90;;;;;;5052568;28;20322;-78
2022/03/15 03:25:19;;;;;;;;;;;0.60;99.90;;;;;;5044471;28;19939;-77
2022/03/15 03:27:46;;;;;;;;;;;0.60;99.90;;;;;;5018055;28;19913;-79
2022/03/15 03:30:13;;;;;;;;;;;0.50;99.90;;;;;;5049752;28;19921;-78
2022/03/15 03:32:40;;;;;;;;;;;0.60;99.90;;;;;;5039433;28;20024;-78
2022/03/15 03:35:05;;;;;;;;;;;0.60;99.90;;;;;;5032452;28;19920;-79
2022/03/15 03:37:32;;;;;;;;;;;0.60;99.90;;;;;;5051418;28;20414;-78
2022/03/15 03:39:58;;;;;;;;;;;0.60;99.90;;;;;;5034582;28;19912;-78
2022/03/15 03:42:24;;;;;;;;;;;0.70;99.90;;;;;;5039741;28;19928;-78
2022/03/15 03:44:50;;;;;;;;;;;0.60;99.90;;;;;;5033906;28;20420;-78
2022/03/15 03:47:17;;;;;;;;;;;0.60;99.90;;;;;;5049309;28;19928;-78
2022/03/15 03:49:42;;;;;;;;;;;0.60;99.90;;;;;;5028991;28;19913;-78
2022/03/15 03:52:08;;;;;;;;;;;0.60;99.90;;;;;;5050960;28;20397;-78
2022/03/15 03:54:34;;;;;;;;;;;0.60;99.90;;;;;;5051723;28;19924;-79
2022/03/15 03:57:00;;;;;;;;;;;0.60;99.90;;;;;;5050990;28;19913;-77
2022/03/15 03:59:26;;;;;;;;;;;0.60;99.90;;;;;;5030489;28;20466;-79
2022/03/15 04:01:51;;;;;;;;;;;0.60;99.90;;;;;;5032036;28;19975;-78
2022/03/15 04:04:17;;;;;;;;;;;0.70;99.90;;;;;;5014323;28;19919;-77
2022/03/15 04:06:43;;;;;;;;;;;0.60;99.90;;;;;;5037592;28;19975;-78
2022/03/15 04:09:10;;;;;;;;;;;0.60;99.90;;;;;;5025390;28;19940;-78
2022/03/15 04:11:36;;;;;;;;;;;0.60;99.90;;;;;;5050902;28;20290;-78
2022/03/15 04:14:03;;;;;;;;;;;0.60;99.90;;;;;;5017265;28;19916;-78
2022/03/15 04:16:29;;;;;;;;;;;0.60;99.90;;;;;;5009292;28;19928;-78
2022/03/15 04:18:55;;;;;;;;;;;0.60;99.90;;;;;;5046409;28;19917;-78
2022/03/15 04:21:24;;;;;;;;;;;0.60;99.90;;;;;;5049487;28;19912;-79
2022/03/15 04:23:54;;;;;;;;;;;0.60;99.90;;;;;;5030664;28;19916;-78
2022/03/15 04:26:19;;;;;;;;;;;0.60;99.90;;;;;;5043641;28;20409;-78
2022/03/15 04:28:45;;;;;;;;;;;0.60;99.90;;;;;;5032021;28;19917;-78
2022/03/15 04:31:11;;;;;;;;;;;0.60;99.90;;;;;;5051450;28;20605;-78
2022/03/15 04:33:36;;;;;;;;;;;0.60;99.90;;;;;;5016980;28;19924;-78
2022/03/15 04:36:02;;;;;;;;;;;0.60;99.90;;;;;;5051088;28;19956;-79
2022/03/15 04:38:28;;;;;;;;;;;0.60;99.90;;;;;;5051006;28;19917;-78
2022/03/15 04:40:53;;;;;;;;;;;0.60;99.90;;;;;;5033853;28;20023;-78
2022/03/15 04:43:19;;;;;;;;;;;0.60;99.90;;;;;;5029191;28;19932;-79
2022/03/15 04:45:45;;;;;;;;;;;0.60;99.90;;;;;;5031887;28;19917;-78
2022/03/15 04:48:10;;;;;;;;;;;0.60;99.90;;;;;;5031906;28;19932;-78
2022/03/15 04:50:36;;;;;;;;;;;0.60;99.90;;;;;;5050786;28;19996;-78
2022/03/15 04:53:02;;;;;;;;;;;0.50;99.90;;;;;;5043560;28;20371;-78
2022/03/15 04:55:27;;;;;;;;;;;0.50;99.90;;;;;;5037521;28;19966;-78
2022/03/15 04:57:53;;;;;;;;;;;0.50;99.90;;;;;;5044622;28;19913;-78
2022/03/15 05:00:19;;;;;;;;;;;0.60;99.90;;;;;;5037146;28;19927;-78
2022/03/15 05:02:45;;;;;;;;;;;0.70;99.90;;;;;;5050200;28;19924;-78
2022/03/15 05:05:12;;;;;;;;;;;0.60;99.90;;;;;;5050610;28;19967;-78
2022/03/15 05:07:39;;;;;;;;;;;0.50;99.90;;;;;;5032703;28;19917;-78
2022/03/15 05:12:49;;;;;;;;;;;0.50;99.90;;;;;;5048587;28;19964;-78
2022/03/15 05:15:14;;;;;;;;;;;0.50;99.90;;;;;;5049671;28;19958;-79
2022/03/15 05:17:40;;;;;;;;;;;0.40;99.90;;;;;;5031653;28;20496;-79
2022/03/15 05:20:06;;;;;;;;;;;0.40;99.90;;;;;;5050543;28;19970;-79
2022/03/15 05:22:32;;;;;;;;;;;0.50;99.90;;;;;;5032903;28;19924;-78
2022/03/15 05:24:58;;;;;;;;;;;0.60;99.90;;;;;;5050997;28;19944;-78
2022/03/15 05:27:24;;;;;;;;;;;0.70;99.90;;;;;;5032570;28;19959;-78
2022/03/15 05:29:49;;;;;;;;;;;0.70;99.90;;;;;;5015873;28;20021;-78
2022/03/15 05:32:15;;;;;;;;;;;0.60;99.90;;;;;;5032562;28;19945;-78
2022/03/15 05:34:41;;;;;;;;;;;0.50;99.90;;;;;;5011971;28;19913;-78
2022/03/15 05:37:08;;;;;;;;;;;0.40;99.90;;;;;;5048705;28;19923;-78
2022/03/15 05:39:34;;;;;;;;;;;0.40;99.90;;;;;;5050197;28;19921;-78
2022/03/15 05:42:00;;;;;;;;;;;0.40;99.90;;;;;;5050408;28;19939;-78
2022/03/15 05:44:26;;;;;;;;;;;0.40;99.90;;;;;;5031326;28;20395;-78
2022/03/15 05:46:52;;;;;;;;;;;0.50;99.90;;;;;;5054080;28;20007;-78
2022/03/15 05:49:18;;;;;;;;;;;0.50;99.90;;;;;;5050919;28;20393;-79
2022/03/15 05:51:43;;;;;;;;;;;0.50;99.90;;;;;;5050578;28;19913;-79
2022/03/15 05:54:09;;;;;;;;;;;0.50;99.90;;;;;;5030777;28;20484;-79
2022/03/15 05:56:35;;;;;;;;;;;0.50;99.90;;;;;;5016777;28;19957;-78
2022/03/15 05:59:01;;;;;;;;;;;0.50;99.90;;;;;;5050409;28;19913;-78
2022/03/15 06:01:27;;;;;;;;;;;0.60;99.90;;;;;;5048301;28;19913;-79
2022/03/15 06:03:53;;;;;;;;;;;0.60;99.90;;;;;;5046894;28;19967;-78
2022/03/15 06:06:21;;;;;;;;;;;0.70;99.90;;;;;;5032360;28;19967;-78
2022/03/15 06:08:47;;;;;;;;;;;0.70;99.90;;;;;;5049351;28;19995;-78
2022/03/15 06:11:13;;;;;;;;;;;0.80;99.90;;;;;;5035856;28;20290;-78
2022/03/15 06:13:38;;;;;;;;;;;0.80;99.90;;;;;;5039056;28;19912;-77
2022/03/15 06:16:04;;;;;;;;;;;0.90;99.90;;;;;;5018736;28;19944;-78
2022/03/15 06:18:30;;;;;;;;;;;0.90;99.90;;;;;;5033330;28;20007;-78
2022/03/15 06:20:55;;;;;;;;;;;0.90;99.90;;;;;;5032534;28;20008;-79
2022/03/15 06:23:23;;;;;;;;;;;0.90;99.90;;;;;;5035481;28;19924;-78
2022/03/15 06:25:49;;;;;;;;;;;1.00;99.90;;;;;;5050047;28;20424;-78
2022/03/15 06:28:14;;;;;;;;;;;1.00;99.90;;;;;;5017677;28;19913;-79
2022/03/15 06:30:41;;;;;;;;;;;1.10;99.90;;;;;;5018860;28;20024;-78
2022/03/15 06:33:08;;;;;;;;;;;1.10;99.90;;;;;;5053195;28;20039;-79
2022/03/15 06:35:34;;;;;;;;;;;1.10;99.90;;;;;;5051699;28;19991;-79
2022/03/15 06:38:01;;;;;;;;;;;1.10;99.90;;;;;;5035023;28;19920;-78
2022/03/15 06:40:29;;;;;;;;;;;1.20;99.90;;;;;;5053074;28;20024;-78
2022/03/15 06:42:55;;;;;;;;;;;1.20;99.90;;;;;;5034423;28;20015;-79
2022/03/15 06:45:21;;;;;;;;;;;1.30;99.90;;;;;;5052649;28;19935;-78
2022/03/15 06:47:47;;;;;;;;;;;1.30;99.90;;;;;;5033710;28;20374;-79
2022/03/15 06:50:13;;;;;;;;;;;1.30;99.90;;;;;;5017158;28;19917;-79
2022/03/15 06:52:39;;;;;;;;;;;1.40;99.90;;;;;;5053041;28;19921;-79
2022/03/15 06:55:05;;;;;;;;;;;1.40;99.90;;;;;;5035150;28;19913;-78
2022/03/15 06:57:31;;;;;;;;;;;1.50;99.90;;;;;;5052538;28;19912;-78
2022/03/15 06:59:57;;;;;;;;;;;1.60;99.90;;;;;;5051638;28;19923;-79
2022/03/15 07:02:23;;;;;;;;;;;1.70;99.90;;;;;;5033319;28;19954;-79
2022/03/15 07:04:48;;;;;;;;;;;1.70;99.90;;;;;;5034369;28;19913;-79
2022/03/15 07:07:15;;;;;;;;;;;1.70;99.90;;;;;;5018049;28;19935;-79
2022/03/15 07:09:41;;;;;;;;;;;1.70;99.90;;;;;;5032551;28;19918;-78
2022/03/15 07:12:07;;;;;;;;;;;1.70;99.90;;;;;;5032416;28;19920;-79
2022/03/15 07:14:32;;;;;;;;;;;1.70;99.90;;;;;;5048041;28;19920;-79
2022/03/15 07:16:58;;;;;;;;;;;1.80;99.90;;;;;;5033020;28;19956;-79
2022/03/15 07:19:24;;;;;;;;;;;1.80;99.90;;;;;;5029570;28;20003;-79
2022/03/15 07:21:49;;;;;;;;;;;1.90;99.90;;;;;;5031908;28;20366;-79
2022/03/15 07:24:15;;;;;;;;;;;1.90;99.90;;;;;;5052158;28;19959;-79
2022/03/15 07:26:43;;;;;;;;;;;2.10;99.90;;;;;;5051400;28;19920;-79
2022/03/15 07:29:09;;;;;;;;;;;2.20;99.90;;;;;;5033247;28;20290;-79
2022/03/15 07:31:34;;;;;;;;;;;2.30;99.90;;;;;;5052434;28;19916;-79
2022/03/15 07:34:00;;;;;;;;;;;2.40;99.90;;;;;;5051064;28;19924;-79
2022/03/15 07:36:25;;;;;;;;;;;2.50;99.90;;;;;;5032473;28;19917;-79
2022/03/15 07:38:51;;;;;;;;;;;2.60;99.90;;;;;;5032687;28;19921;-78
2022/03/15 07:41:18;;;;;;;;;;;2.70;99.90;;;;;;5031620;28;19992;-79
2022/03/15 07:43:44;;;;;;;;;;;2.80;99.90;;;;;;5046260;28;19921;-78
2022/03/15 07:46:09;;;;;;;;;;;2.90;99.90;;;;;;5032932;28;20461;-78
2022/03/15 07:48:35;;;;;;;;;;;2.90;99.90;;;;;;5051830;28;19963;-79
2022/03/15 07:51:01;;;;;;;;;;;3.10;99.90;;;;;;5049934;28;20478;-78
2022/03/15 07:53:28;;;;;;;;;;;3.20;99.90;;;;;;5033974;28;19924;-78
2022/03/15 07:55:54;;;;;;;;;;;3.20;99.90;;;;;;5048077;28;19918;-78
2022/03/15 07:58:19;;;;;;;;;;;3.20;99.90;;;;;;5050746;28;19961;-78
2022/03/15 08:00:46;;;;;;;;;;;3.20;99.90;;;;;;5029185;28;20430;-79
2022/03/15 08:03:12;;;;;;;;;;;3.20;99.90;;;;;;5029860;28;19964;-79
2022/03/15 08:05:37;;;;;;;;;;;3.30;99.90;;;;;;5051566;28;20159;-79
2022/03/15 08:08:07;;;;;;;;;;;3.40;99.90;;;;;;5032408;28;19917;-78
2022/03/15 08:10:33;;;;;;;;;;;3.30;99.90;;;;;;5032102;28;20371;-78
2022/03/15 08:12:58;;;;;;;;;;;3.40;99.90;;;;;;5033545;28;20050;-78
2022/03/15 08:15:24;;;;;;;;;;;3.40;99.90;;;;;;5017073;28;19922;-78
2022/03/15 08:17:50;;;;;;;;;;;3.50;99.90;;;;;;5031784;28;20379;-78
2022/03/15 08:20:20;;;;;;;;;;;3.60;99.90;;;;;;5051454;28;19988;-78
2022/03/15 08:22:46;;;;;;;;;;;3.70;99.90;;;;;;5046760;28;20514;-78
2022/03/15 08:25:12;;;;;;;;;;;3.80;99.90;;;;;;5039192;28;19909;-78
2022/03/15 08:27:39;;;;;;;;;;;3.80;99.90;;;;;;5031966;28;19927;-78
2022/03/15 08:30:05;;;;;;;;;;;3.90;99.90;;;;;;5051429;28;19913;-78
2022/03/15 08:32:30;;;;;;;;;;;3.90;99.90;;;;;;5050796;28;19940;-78
2022/03/15 08:34:56;;;;;;;;;;;4.00;99.90;;;;;;5024042;28;20419;-79
2022/03/15 08:37:22;;;;;;;;;;;4.00;99.90;;;;;;5013377;28;19917;-78
2022/03/15 08:39:48;;;;;;;;;;;4.20;99.90;;;;;;5047124;28;19992;-79
2022/03/15 08:42:14;;;;;;;;;;;4.30;99.90;;;;;;5051008;28;19916;-78
2022/03/15 08:44:39;;;;;;;;;;;4.50;99.90;;;;;;5048945;28;19917;-78
2022/03/15 08:47:05;;;;;;;;;;;4.60;99.90;;;;;;5045331;28;19917;-78
2022/03/15 08:49:30;;;;;;;;;;;4.70;99.90;;;;;;5049875;28;19917;-78
2022/03/15 08:51:56;;;;;;;;;;;4.80;99.90;;;;;;5050595;28;19924;-78
2022/03/15 08:54:22;;;;;;;;;;;4.90;99.90;;;;;;5049291;28;19913;-78
2022/03/15 08:56:48;;;;;;;;;;;5.00;99.90;;;;;;5026638;28;19921;-79
2022/03/15 08:59:15;;;;;;;;;;;5.10;99.90;;;;;;5042359;28;19917;-79
2022/03/15 09:01:41;;;;;;;;;;;5.20;99.90;;;;;;5023384;28;20014;-79
2022/03/15 09:04:07;;;;;;;;;;;5.30;99.90;;;;;;5047754;28;20323;-79
2022/03/15 09:06:32;;;;;;;;;;;5.40;99.90;;;;;;5052605;28;19952;-79
2022/03/15 09:09:01;;;;;;;;;;;5.40;99.90;;;;;;5050767;28;19913;-79
2022/03/15 09:11:28;;;;;;;;;;;5.50;99.90;;;;;;5052899;28;19963;-79
2022/03/15 09:13:53;;;;;;;;;;;5.50;99.90;;;;;;5046696;28;19913;-79
2022/03/15 09:16:20;;;;;;;;;;;5.50;99.90;;;;;;5032018;28;19992;-79
2022/03/15 09:18:46;;;;;;;;;;;5.60;99.90;;;;;;5040668;28;19915;-79
2022/03/15 09:21:12;;;;;;;;;;;5.80;99.90;;;;;;5044816;28;19952;-79
2022/03/15 09:23:38;;;;;;;;;;;5.80;99.90;;;;;;5044366;28;19921;-78
2022/03/15 09:26:04;;;;;;;;;;;5.90;99.90;;;;;;5045179;28;19917;-79
2022/03/15 09:28:29;;;;;;;;;;;5.90;99.90;;;;;;5033104;28;19960;-79
2022/03/15 09:30:55;;;;;;;;;;;6.00;99.90;;;;;;5031183;28;20395;-79
2022/03/15 09:33:23;;;;;;;;;;;6.00;99.90;;;;;;5043772;28;19917;-79
2022/03/15 09:35:49;;;;;;;;;;;6.10;99.90;;;;;;5016198;28;19924;-78
2022/03/15 09:38:14;;;;;;;;;;;6.10;99.90;;;;;;5051665;28;19913;-78
2022/03/15 09:40:41;;;;;;;;;;;6.10;99.90;;;;;;5047517;28;20112;-79
2022/03/15 09:43:08;;;;;;;;;;;6.10;99.90;;;;;;5031826;28;19960;-78
2022/03/15 09:45:35;;;;;;;;;;;6.10;99.90;;;;;;5052493;28;19924;-79
2022/03/15 09:48:04;;;;;;;;;;;6.20;99.90;;;;;;5034540;28;19925;-78
2022/03/15 09:50:30;;;;;;;;;;;6.20;99.90;;;;;;5047457;28;19925;-79
2022/03/15 09:52:57;;;;;;;;;;;6.20;99.90;;;;;;5034478;28;19913;-79
2022/03/15 09:55:24;;;;;;;;;;;6.30;99.90;;;;;;5048852;28;19916;-78
2022/03/15 09:57:50;;;;;;;;;;;6.40;99.90;;;;;;5029483;28;19917;-78
2022/03/15 10:00:16;;;;;;;;;;;6.50;99.90;;;;;;5036461;28;20487;-78
2022/03/15 10:02:42;;;;;;;;;;;6.50;99.90;;;;;;5047206;28;19931;-79
2022/03/15 10:05:08;;;;;;;;;;;6.60;99.90;;;;;;5051044;28;19913;-79
2022/03/15 10:07:35;;;;;;;;;;;6.60;99.90;;;;;;5035666;28;19917;-78
2022/03/15 10:10:03;;;;;;;;;;;6.80;99.90;;;;;;5053463;28;19924;-78
2022/03/15 10:12:29;;;;;;;;;;;6.80;99.90;;;;;;5053307;28;19921;-79
2022/03/15 10:14:56;;;;;;;;;;;6.80;99.90;;;;;;5034105;28;20016;-79
2022/03/15 10:17:22;;;;;;;;;;;6.90;99.90;;;;;;5052598;28;19916;-78
2022/03/15 10:19:54;;;;;;;;;;;6.90;99.90;;;;;;5052302;28;19966;-78
2022/03/15 10:22:21;;;;;;;;;;;6.90;99.90;;;;;;5053224;28;19916;-78
2022/03/15 10:24:46;;;;;;;;;;;7.00;99.90;;;;;;5032327;28;19909;-78
2022/03/15 10:27:12;;;;;;;;;;;7.00;99.90;;;;;;5045794;28;19917;-78
2022/03/15 10:29:39;;;;;;;;;;;7.10;99.90;;;;;;5053486;28;19920;-78
2022/03/15 10:32:04;;;;;;;;;;;7.20;99.90;;;;;;5034933;28;19921;-78
2022/03/15 10:34:30;;;;;;;;;;;7.30;99.90;;;;;;5034875;28;19924;-78
2022/03/15 10:36:56;;;;;;;;;;;7.40;99.90;;;;;;5052044;28;19979;-78
2022/03/15 10:39:23;;;;;;;;;;;7.40;99.90;;;;;;5018066;28;19916;-79
2022/03/15 10:41:53;;;;;;;;;;;7.40;99.90;;;;;;5052306;28;19990;-78
2022/03/15 10:44:21;;;;;;;;;;;7.40;99.90;;;;;;5044035;28;19917;-79
2022/03/15 10:46:57;;;;;;;;;;;7.50;99.90;;;;;;5027900;28;19920;-79
2022/03/15 10:49:23;;;;;;;;;;;7.50;99.90;;;;;;5043198;28;19948;-78
2022/03/15 10:51:50;;;;;;;;;;;7.60;99.90;;;;;;5042861;28;19956;-79
2022/03/15 10:54:16;;;;;;;;;;;7.70;99.90;;;;;;5050227;28;20366;-78
2022/03/15 10:56:50;;;;;;;;;;;7.80;99.90;;;;;;5031754;28;19912;-78
2022/03/15 10:59:16;;;;;;;;;;;7.90;99.90;;;;;;5021253;28;19917;-78
2022/03/15 11:01:41;;;;;;;;;;;8.10;99.90;;;;;;5032236;28;20008;-78
2022/03/15 11:04:08;;;;;;;;;;;8.20;99.90;;;;;;5046238;28;19921;-78
2022/03/15 11:06:34;;;;;;;;;;;8.20;99.90;;;;;;5025082;28;19920;-78
2022/03/15 11:09:00;;;;;;;;;;;8.30;99.90;;;;;;5029435;28;19917;-78
2022/03/15 11:11:27;;;;;;;;;;;8.40;99.90;;;;;;5031640;28;20003;-78
2022/03/15 11:14:05;;;;;;;;;;;8.50;99.90;;;;;;5013072;28;19924;-78
2022/03/15 11:16:34;;;;;;;;;;;8.60;99.90;;;;;;5021799;28;19913;-79
2022/03/15 11:19:01;;;;;;;;;;;8.70;99.90;;;;;;5037138;28;19917;-78
2022/03/15 11:21:28;;;;;;;;;;;8.70;99.90;;;;;;5028546;28;20571;-79
2022/03/15 11:23:55;;;;;;;;;;;8.70;99.90;;;;;;5044832;28;19970;-78
2022/03/15 11:26:22;;;;;;;;;;;8.70;99.90;;;;;;5027367;28;19925;-78
2022/03/15 11:28:47;;;;;;;;;;;8.60;99.90;;;;;;5029663;28;19912;-79
2022/03/15 11:31:14;;;;;;;;;;;8.70;99.90;;;;;;5048921;28;19940;-78
2022/03/15 11:33:40;;;;;;;;;;;8.70;99.90;;;;;;5044108;28;19944;-78
2022/03/15 11:36:06;;;;;;;;;;;8.80;99.90;;;;;;5040894;28;19916;-78
2022/03/15 11:38:33;;;;;;;;;;;8.90;99.90;;;;;;5045947;28;19913;-77
2022/03/15 11:40:59;;;;;;;;;;;9.00;99.90;;;;;;5049200;28;19993;-78
2022/03/15 11:43:34;;;;;;;;;;;9.10;99.90;;;;;;5044784;28;19971;-77
2022/03/15 11:46:13;;;;;;;;;;;9.10;99.90;;;;;;5048784;28;19924;-78
2022/03/15 11:48:53;;;;;;;;;;;9.10;99.90;;;;;;5027578;28;20399;-78
2022/03/15 11:51:31;;;;;;;;;;;9.20;99.90;;;;;;5027522;28;20406;-78
2022/03/15 11:53:59;;;;;;;;;;;9.30;99.90;;;;;;5046344;28;20372;-78
2022/03/15 11:56:28;;;;;;;;;;;9.30;99.90;;;;;;5047388;28;20282;-78
2022/03/15 11:58:55;;;;;;;;;;;9.40;99.90;;;;;;5044467;28;19913;-78
2022/03/15 12:01:22;;;;;;;;;;;9.50;99.90;;;;;;5030507;28;19917;-77
2022/03/15 12:03:52;;;;;;;;;;;9.50;99.90;;;;;;5048091;28;19912;-78
2022/03/15 12:06:20;;;;;;;;;;;9.50;99.90;;;;;;5009786;28;20346;-78
2022/03/15 12:08:53;;;;;;;;;;;9.60;99.90;;;;;;5024502;28;19909;-77
2022/03/15 12:11:30;;;;;;;;;;;9.60;99.90;;;;;;5045877;28;19917;-77
2022/03/15 12:14:05;;;;;;;;;;;9.70;99.90;;;;;;5047271;28;19917;-77
2022/03/15 12:16:34;;;;;;;;;;;9.70;99.90;;;;;;5045807;28;20307;-77
2022/03/15 12:19:14;;;;;;;;;;;9.80;99.90;;;;;;5044153;28;19916;-77
2022/03/15 12:21:52;;;;;;;;;;;9.80;99.90;;;;;;5036454;28;20371;-77
2022/03/15 12:24:19;;;;;;;;;;;9.70;99.90;;;;;;5047049;28;20430;-77
2022/03/15 12:26:46;;;;;;;;;;;9.80;99.90;;;;;;5037546;28;20275;-77
2022/03/15 12:29:16;;;;;;;;;;;9.80;99.90;;;;;;5047008;28;19939;-77
2022/03/15 12:31:43;;;;;;;;;;;9.90;99.90;;;;;;5042915;28;19913;-78
2022/03/15 12:34:10;;;;;;;;;;;9.90;99.90;;;;;;5041180;28;19928;-78
2022/03/15 12:36:37;;;;;;;;;;;9.90;99.90;;;;;;5037362;28;19921;-78
2022/03/15 12:39:10;;;;;;;;;;;10.00;99.90;;;;;;5040043;28;19914;-77
2022/03/15 12:41:36;;;;;;;;;;;10.00;99.90;;;;;;5045471;28;19943;-78
2022/03/15 12:44:02;;;;;;;;;;;10.00;99.90;;;;;;5012115;28;20352;-78
2022/03/15 12:46:30;;;;;;;;;;;10.10;99.90;;;;;;5044814;28;19921;-78
2022/03/15 12:49:04;;;;;;;;;;;10.10;99.90;;;;;;5044994;28;20385;-78
2022/03/15 12:51:40;;;;;;;;;;;10.20;99.90;;;;;;5045907;28;19923;-78
2022/03/15 12:54:07;;;;;;;;;;;10.20;99.90;;;;;;5047265;28;20592;-78
2022/03/15 12:56:40;;;;;;;;;;;10.20;99.90;;;;;;5043628;28;19916;-77
2022/03/15 12:59:06;;;;;;;;;;;10.20;99.90;;;;;;5045692;28;19919;-77
2022/03/15 13:01:32;;;;;;;;;;;10.20;99.90;;;;;;5042931;28;19924;-78
2022/03/15 13:03:58;;;;;;;;;;;10.20;99.90;;;;;;5047713;28;19920;-77
2022/03/15 13:06:24;;;;;;;;;;;10.20;99.90;;;;;;5018275;28;19927;-78
2022/03/15 13:08:55;;;;;;;;;;;10.10;99.90;;;;;;5025127;28;20195;-78
2022/03/15 13:11:21;;;;;;;;;;;10.10;99.90;;;;;;5033880;28;19943;-77
2022/03/15 13:13:47;;;;;;;;;;;10.10;99.90;;;;;;5026883;28;20516;-77
2022/03/15 13:16:12;;;;;;;;;;;10.10;99.90;;;;;;5029080;28;19920;-77
2022/03/15 13:18:42;;;;;;;;;;;10.00;99.90;;;;;;5043756;28;19912;-77
2022/03/15 13:21:12;;;;;;;;;;;10.00;99.90;;;;;;5040020;28;19958;-77
2022/03/15 13:23:41;;;;;;;;;;;10.00;99.90;;;;;;5050860;28;19920;-78
2022/03/15 13:26:10;;;;;;;;;;;10.00;99.90;;;;;;5036325;28;19920;-77
2022/03/15 13:28:40;;;;;;;;;;;9.90;99.90;;;;;;5048045;28;20026;-77
2022/03/15 13:31:07;;;;;;;;;;;9.90;99.90;;;;;;5028987;28;19913;-77
2022/03/15 13:33:32;;;;;;;;;;;9.90;99.90;;;;;;5031736;28;20007;-78
2022/03/15 13:36:03;;;;;;;;;;;9.90;99.90;;;;;;5031423;28;19913;-77
2022/03/15 13:38:29;;;;;;;;;;;9.90;99.90;;;;;;5029160;28;20345;-78
2022/03/15 13:40:55;;;;;;;;;;;9.90;99.90;;;;;;5050733;28;20386;-77
2022/03/15 13:43:22;;;;;;;;;;;9.90;99.90;;;;;;5049947;28;19920;-77
2022/03/15 13:45:47;;;;;;;;;;;9.90;99.90;;;;;;5035322;28;20332;-78
2022/03/15 13:48:24;;;;;;;;;;;9.90;99.90;;;;;;5045859;28;19999;-78
2022/03/15 13:51:00;;;;;;;;;;;9.90;99.90;;;;;;5051098;28;19917;-77
2022/03/15 13:53:26;;;;;;;;;;;9.90;99.90;;;;;;5047671;28;19971;-77
2022/03/15 13:55:53;;;;;;;;;;;9.90;99.90;;;;;;5054367;28;19948;-78
2022/03/15 13:58:26;;;;;;;;;;;9.90;99.90;;;;;;5047546;28;20017;-77
2022/03/15 14:01:03;;;;;;;;;;;9.90;99.90;;;;;;5032452;28;19947;-77
2022/03/15 14:03:33;;;;;;;;;;;10.00;99.90;;;;;;5050819;28;19931;-77
2022/03/15 14:06:06;;;;;;;;;;;9.90;99.90;;;;;;5050330;28;19947;-77
2022/03/15 14:08:47;;;;;;;;;;;9.90;99.90;;;;;;5034928;28;19956;-77
2022/03/15 14:11:13;;;;;;;;;;;9.90;99.90;;;;;;5038773;28;20342;-78
2022/03/15 14:13:41;;;;;;;;;;;9.80;99.90;;;;;;5043645;28;19912;-78
2022/03/15 14:16:10;;;;;;;;;;;9.80;99.90;;;;;;5047889;28;19917;-77
2022/03/15 14:18:36;;;;;;;;;;;9.70;99.90;;;;;;5047064;28;20011;-77
2022/03/15 14:21:02;;;;;;;;;;;9.70;99.90;;;;;;5049623;28;19917;-77
2022/03/15 14:23:29;;;;;;;;;;;9.60;99.90;;;;;;5014643;28;19921;-77
2022/03/15 14:26:00;;;;;;;;;;;9.60;99.90;;;;;;5049574;28;20374;-77
2022/03/15 14:28:26;;;;;;;;;;;9.50;99.90;;;;;;5047995;28;19913;-77